Time;durP1;ratioP1;P1;durP2;ratioP2;P2;SDS_P1;SDS_P2;PMS_P1;PMS_P2;Temp;Humidity;BMP_temperature;BMP_pressure;BME280_temperature;BME280_humidity;BME280_pressure;Samples;Min_cycle;Max_cycle;Signal;HPM_P1;HPM_P2
2021/05/27 00:01:49;;;;;;;2.72;1.60;;;7.30;99.90;;;;;;5032287;28;20029;-78
2021/05/27 00:04:14;;;;;;;1.58;1.48;;;7.30;99.90;;;;;;4997039;28;20730;-78
2021/05/27 00:06:40;;;;;;;2.00;1.70;;;7.40;99.90;;;;;;5031372;28;20029;-78
2021/05/27 00:09:06;;;;;;;3.08;1.98;;;7.30;99.90;;;;;;5033383;28;20053;-79
2021/05/27 00:11:31;;;;;;;2.90;2.03;;;7.30;99.90;;;;;;5031186;28;20060;-78
2021/05/27 00:13:58;;;;;;;2.80;2.10;;;7.30;99.90;;;;;;5031891;28;21401;-78
2021/05/27 00:16:23;;;;;;;2.40;1.77;;;7.30;99.90;;;;;;5032148;28;20100;-78
2021/05/27 00:18:52;;;;;;;2.45;1.80;;;7.30;99.90;;;;;;5032936;28;20612;-79
2021/05/27 00:21:21;;;;;;;2.55;2.00;;;7.30;99.90;;;;;;5031833;28;20033;-78
2021/05/27 00:23:47;;;;;;;1.90;1.80;;;7.30;99.90;;;;;;5030941;28;20615;-78
2021/05/27 00:26:13;;;;;;;3.22;2.28;;;7.30;99.90;;;;;;5032477;28;20125;-78
2021/05/27 00:28:38;;;;;;;2.13;1.92;;;7.30;99.90;;;;;;5033217;28;20033;-78
2021/05/27 00:31:05;;;;;;;2.50;2.25;;;7.30;99.90;;;;;;5025561;28;20421;-78
2021/05/27 00:33:31;;;;;;;2.75;2.17;;;7.20;99.90;;;;;;5029610;28;20022;-78
2021/05/27 00:35:56;;;;;;;2.45;2.13;;;7.30;99.90;;;;;;5031525;28;20457;-78
2021/05/27 00:38:22;;;;;;;2.47;2.15;;;7.20;99.90;;;;;;5031163;28;20021;-78
2021/05/27 00:40:48;;;;;;;2.65;2.10;;;7.20;99.90;;;;;;5032201;28;20128;-78
2021/05/27 00:43:14;;;;;;;1.95;1.85;;;7.20;99.90;;;;;;5032007;28;20018;-78
2021/05/27 00:45:39;;;;;;;2.30;1.85;;;7.20;99.90;;;;;;5032721;28;20026;-78
2021/05/27 00:48:05;;;;;;;2.50;1.92;;;7.20;99.90;;;;;;5021043;28;20041;-78
2021/05/27 00:50:32;;;;;;;2.30;1.88;;;7.30;99.90;;;;;;5022126;28;20567;-78
2021/05/27 00:52:58;;;;;;;3.17;2.05;;;7.20;99.90;;;;;;4995748;28;20026;-78
2021/05/27 00:55:27;;;;;;;3.83;2.35;;;7.20;99.90;;;;;;5028202;28;20401;-78
2021/05/27 00:57:56;;;;;;;2.75;2.17;;;7.30;99.90;;;;;;5011946;28;20057;-78
2021/05/27 01:00:27;;;;;;;4.57;2.63;;;7.20;99.90;;;;;;5027210;28;20030;-78
2021/05/27 01:02:53;;;;;;;2.50;2.30;;;7.20;99.90;;;;;;5027197;28;20502;-78
2021/05/27 01:05:19;;;;;;;4.68;2.42;;;7.20;99.90;;;;;;5029300;28;20473;-78
2021/05/27 01:07:46;;;;;;;4.22;2.30;;;7.20;99.90;;;;;;5014018;28;20029;-78
2021/05/27 01:10:15;;;;;;;4.78;2.20;;;7.20;99.90;;;;;;5013214;28;20025;-78
2021/05/27 01:12:41;;;;;;;4.68;2.28;;;7.30;99.90;;;;;;5025438;28;20036;-78
2021/05/27 01:15:31;;;;;;;3.08;2.55;;;7.30;99.90;;;;;;5030949;28;20028;-78
2021/05/27 01:18:01;;;;;;;4.15;2.10;;;7.30;99.90;;;;;;5060552;28;20021;-78
2021/05/27 01:20:29;;;;;;;2.85;2.20;;;7.30;99.90;;;;;;5029691;28;20187;-78
2021/05/27 01:22:56;;;;;;;2.72;2.30;;;7.30;99.90;;;;;;5023907;28;20040;-78
2021/05/27 01:25:22;;;;;;;3.53;2.38;;;7.30;99.90;;;;;;5022416;28;20033;-78
2021/05/27 01:27:47;;;;;;;3.80;2.38;;;7.30;99.90;;;;;;5028903;28;20022;-78
2021/05/27 01:30:14;;;;;;;2.10;2.00;;;7.40;99.90;;;;;;5029686;28;20026;-78
2021/05/27 01:32:40;;;;;;;3.00;2.28;;;7.40;99.90;;;;;;5031457;28;20104;-78
2021/05/27 01:35:13;;;;;;;3.30;2.40;;;7.30;99.90;;;;;;5029439;28;20098;-78
2021/05/27 01:37:41;;;;;;;2.28;2.05;;;7.30;99.90;;;;;;5030031;28;20393;-78
2021/05/27 01:40:07;;;;;;;3.50;2.83;;;7.30;99.90;;;;;;5029289;28;20033;-78
2021/05/27 01:42:33;;;;;;;4.50;2.60;;;7.30;99.90;;;;;;5030190;28;20442;-78
2021/05/27 01:44:59;;;;;;;2.42;2.22;;;7.30;99.90;;;;;;5013398;28;20156;-78
2021/05/27 01:47:26;;;;;;;3.03;2.33;;;7.20;99.90;;;;;;5010806;28;20033;-78
2021/05/27 01:49:51;;;;;;;3.65;2.70;;;7.20;99.90;;;;;;5030691;28;20033;-78
2021/05/27 01:52:17;;;;;;;3.13;2.58;;;7.20;99.90;;;;;;5030029;28;20021;-77
2021/05/27 01:54:43;;;;;;;3.35;2.35;;;7.20;99.90;;;;;;5025481;28;20493;-78
2021/05/27 01:57:08;;;;;;;4.72;2.40;;;7.20;99.90;;;;;;5013367;28;20545;-78
2021/05/27 01:59:36;;;;;;;3.00;2.55;;;7.20;99.90;;;;;;5011891;28;20083;-78
2021/05/27 02:02:02;;;;;;;3.00;2.72;;;7.20;99.90;;;;;;5029915;28;20029;-78
2021/05/27 02:04:27;;;;;;;4.50;3.28;;;7.20;99.90;;;;;;5029478;28;20048;-78
2021/05/27 02:06:53;;;;;;;4.13;3.22;;;7.20;99.90;;;;;;5029618;28;20026;-78
2021/05/27 02:09:20;;;;;;;4.20;3.20;;;7.20;99.90;;;;;;5013075;28;20195;-78
2021/05/27 02:11:50;;;;;;;6.40;3.17;;;7.20;99.90;;;;;;5013861;28;20088;-78
2021/05/27 02:14:22;;;;;;;5.53;3.55;;;7.20;99.90;;;;;;5023927;28;20030;-78
2021/05/27 02:16:47;;;;;;;5.20;3.60;;;7.20;99.90;;;;;;5030674;28;20367;-78
2021/05/27 02:19:13;;;;;;;4.10;3.50;;;7.10;99.90;;;;;;5025927;28;20029;-78
2021/05/27 02:21:42;;;;;;;4.35;3.33;;;7.20;99.90;;;;;;5028684;28;20136;-78
2021/05/27 02:24:13;;;;;;;5.78;4.25;;;7.20;99.90;;;;;;5029821;28;20037;-78
2021/05/27 02:26:39;;;;;;;4.38;3.78;;;7.20;99.90;;;;;;5030449;28;20036;-78
2021/05/27 02:29:10;;;;;;;6.00;4.32;;;7.20;99.90;;;;;;5029740;28;20021;-78
2021/05/27 02:31:38;;;;;;;6.03;4.50;;;7.20;99.90;;;;;;5028820;28;20029;-78
2021/05/27 02:34:07;;;;;;;5.18;4.07;;;7.30;99.90;;;;;;5027629;28;20029;-78
2021/05/27 02:36:35;;;;;;;6.53;4.22;;;7.30;99.90;;;;;;5028932;28;20033;-78
2021/05/27 02:39:05;;;;;;;6.15;5.00;;;7.30;99.90;;;;;;5010674;28;20048;-78
2021/05/27 02:41:50;;;;;;;7.60;5.82;;;7.40;99.90;;;;;;5028364;28;20045;-78
2021/05/27 02:44:19;;;;;;;7.97;6.22;;;7.40;99.90;;;;;;5019402;28;20034;-78
2021/05/27 02:46:50;;;;;;;8.15;6.15;;;7.40;99.90;;;;;;5021438;28;20033;-78
2021/05/27 02:49:17;;;;;;;8.18;5.55;;;7.40;99.90;;;;;;5012890;28;20083;-78
2021/05/27 02:51:44;;;;;;;7.00;5.05;;;7.40;99.90;;;;;;5026485;28;20056;-78
2021/05/27 02:54:11;;;;;;;7.10;5.55;;;7.40;99.90;;;;;;5029297;28;20028;-78
2021/05/27 02:56:39;;;;;;;9.18;5.85;;;7.50;99.90;;;;;;5019368;28;20034;-78
2021/05/27 02:59:06;;;;;;;13.05;6.97;;;7.50;99.90;;;;;;5056608;28;20158;-78
2021/05/27 03:01:32;;;;;;;8.38;6.38;;;7.50;99.90;;;;;;5011576;28;20037;-78
2021/05/27 03:03:59;;;;;;;10.18;7.38;;;7.50;99.90;;;;;;5029955;28;20044;-78
2021/05/27 03:06:26;;;;;;;10.07;8.07;;;7.60;99.90;;;;;;5010918;28;20029;-78
2021/05/27 03:08:53;;;;;;;9.70;7.65;;;7.50;99.90;;;;;;5028878;28;20132;-78
2021/05/27 03:11:21;;;;;;;11.85;7.65;;;7.60;99.90;;;;;;5029353;28;20032;-78
2021/05/27 03:13:49;;;;;;;11.63;8.20;;;7.60;99.90;;;;;;5028724;28;20406;-78
2021/05/27 03:16:17;;;;;;;12.23;8.10;;;7.60;99.90;;;;;;5022639;28;20022;-78
2021/05/27 03:18:44;;;;;;;12.07;9.10;;;7.60;99.90;;;;;;5029760;28;20025;-78
2021/05/27 03:21:10;;;;;;;12.65;8.63;;;7.60;99.90;;;;;;5027187;28;20401;-77
2021/05/27 03:23:37;;;;;;;11.98;8.48;;;7.50;99.90;;;;;;5004389;28;20398;-78
2021/05/27 03:26:03;;;;;;;14.30;8.70;;;7.50;99.90;;;;;;5028084;28;20437;-78
2021/05/27 03:28:31;;;;;;;13.50;8.50;;;7.60;99.90;;;;;;5017040;28;20029;-78
2021/05/27 03:31:03;;;;;;;13.77;9.68;;;7.60;99.90;;;;;;5034263;28;20029;-78
2021/05/27 03:33:33;;;;;;;11.07;7.65;;;7.60;99.90;;;;;;5033689;28;20030;-77
2021/05/27 03:36:02;;;;;;;10.77;8.40;;;7.60;99.90;;;;;;5028946;28;20033;-77
2021/05/27 03:38:30;;;;;;;12.35;8.73;;;7.60;99.90;;;;;;5033158;28;20029;-77
2021/05/27 03:40:56;;;;;;;11.60;8.13;;;7.60;99.90;;;;;;5034574;28;20091;-78
2021/05/27 03:43:22;;;;;;;11.57;8.35;;;7.70;99.90;;;;;;5031264;28;20057;-77
2021/05/27 03:45:49;;;;;;;14.38;8.75;;;7.60;99.90;;;;;;5018182;28;20498;-78
2021/05/27 03:48:17;;;;;;;13.35;8.13;;;7.70;99.90;;;;;;5019596;28;20029;-78
2021/05/27 03:50:43;;;;;;;17.15;8.63;;;7.60;99.90;;;;;;5034723;28;20049;-77
2021/05/27 03:53:14;;;;;;;11.77;8.70;;;7.60;99.90;;;;;;5034862;28;20049;-78
2021/05/27 03:55:44;;;;;;;10.48;7.93;;;7.70;99.90;;;;;;5018160;28;20482;-79
2021/05/27 04:00:58;;;;;;;12.55;8.45;;;7.70;99.90;;;;;;5030876;28;20030;-77
2021/05/27 04:09:30;;;;;;;12.80;8.70;;;7.70;99.90;;;;;;5006025;28;20409;-78
2021/05/27 04:14:40;;;;;;;10.48;8.02;;;7.70;99.90;;;;;;5038451;28;20026;-79
2021/05/27 04:17:06;;;;;;;11.95;8.20;;;7.80;99.90;;;;;;5039266;28;20097;-79
2021/05/27 04:19:32;;;;;;;12.32;8.43;;;7.80;99.90;;;;;;5036652;28;20038;-78
2021/05/27 04:21:58;;;;;;;9.48;7.55;;;7.80;99.90;;;;;;5036850;28;20116;-78
2021/05/27 04:24:23;;;;;;;12.75;7.72;;;7.80;99.90;;;;;;5017672;28;20060;-78
2021/05/27 04:26:49;;;;;;;14.52;7.88;;;7.80;99.90;;;;;;5035902;28;20543;-78
2021/05/27 04:29:15;;;;;;;11.10;7.82;;;7.80;99.90;;;;;;5033968;28;20441;-78
2021/05/27 04:31:40;;;;;;;12.18;8.75;;;7.90;99.90;;;;;;5033524;28;20045;-78
2021/05/27 04:34:06;;;;;;;11.05;8.38;;;7.90;99.90;;;;;;5035811;28;20044;-78
2021/05/27 04:36:32;;;;;;;12.18;8.80;;;7.90;99.90;;;;;;5035463;28;20098;-79
2021/05/27 04:38:57;;;;;;;12.35;8.60;;;7.90;99.90;;;;;;5031752;28;20029;-79
2021/05/27 04:41:23;;;;;;;12.77;8.80;;;8.00;99.90;;;;;;5032681;28;20040;-79
2021/05/27 04:43:53;;;;;;;12.77;8.85;;;8.00;99.90;;;;;;5015024;28;20032;-78
2021/05/27 04:46:20;;;;;;;12.20;8.85;;;8.00;99.90;;;;;;5031489;28;20144;-78
2021/05/27 04:48:46;;;;;;;12.38;8.32;;;8.00;99.90;;;;;;5031856;28;20045;-78
2021/05/27 04:51:12;;;;;;;13.32;8.75;;;8.10;99.90;;;;;;4998605;28;20037;-78
2021/05/27 04:53:37;;;;;;;16.65;8.77;;;8.10;99.90;;;;;;5026252;28;20040;-78
2021/05/27 04:56:05;;;;;;;12.02;8.80;;;8.10;99.90;;;;;;5031745;28;20032;-78
2021/05/27 04:58:31;;;;;;;13.13;8.52;;;8.20;99.90;;;;;;5031158;28;20025;-79
2021/05/27 05:00:58;;;;;;;12.88;8.70;;;8.10;99.90;;;;;;5032314;28;20021;-79
2021/05/27 05:03:24;;;;;;;17.15;9.48;;;8.10;99.90;;;;;;5033037;28;20092;-78
2021/05/27 05:05:49;;;;;;;11.73;8.23;;;8.10;99.90;;;;;;5031489;28;20438;-78
2021/05/27 05:08:15;;;;;;;11.73;8.07;;;8.10;99.90;;;;;;5032991;28;20441;-78
2021/05/27 05:10:43;;;;;;;9.52;8.13;;;8.20;99.90;;;;;;5031454;28;20033;-78
2021/05/27 05:13:08;;;;;;;12.18;9.13;;;8.20;99.90;;;;;;5032131;28;20506;-78
2021/05/27 05:15:37;;;;;;;13.52;8.77;;;8.20;99.90;;;;;;5031477;28;20033;-79
2021/05/27 05:18:08;;;;;;;13.98;7.97;;;8.30;99.90;;;;;;5030605;28;20108;-78
2021/05/27 05:20:39;;;;;;;12.20;8.90;;;8.30;99.90;;;;;;5030076;28;20040;-78
2021/05/27 05:23:06;;;;;;;10.02;7.55;;;8.30;99.90;;;;;;5029702;28;20443;-78
2021/05/27 05:25:34;;;;;;;9.38;7.22;;;8.30;99.90;;;;;;5029947;28;20076;-78
2021/05/27 05:28:00;;;;;;;9.88;7.93;;;8.30;99.90;;;;;;5031323;28;20021;-78
2021/05/27 05:30:27;;;;;;;10.63;7.82;;;8.40;99.90;;;;;;5031276;28;20021;-78
2021/05/27 05:32:54;;;;;;;14.07;8.90;;;8.40;99.90;;;;;;5032777;28;20108;-79
2021/05/27 05:35:21;;;;;;;12.30;8.48;;;8.40;99.90;;;;;;5032546;28;20044;-79
2021/05/27 05:37:47;;;;;;;14.45;8.20;;;8.50;99.90;;;;;;5034051;28;20431;-79
2021/05/27 05:40:16;;;;;;;10.63;8.27;;;8.60;99.90;;;;;;5016509;28;20025;-78
2021/05/27 05:42:42;;;;;;;13.95;8.00;;;8.60;99.90;;;;;;5034033;28;20052;-78
2021/05/27 05:45:11;;;;;;;13.02;7.00;;;8.70;99.90;;;;;;5033427;28;20033;-79
2021/05/27 05:47:37;;;;;;;10.27;7.30;;;8.80;99.90;;;;;;5033884;28;20033;-78
2021/05/27 05:50:04;;;;;;;7.68;6.70;;;8.80;99.90;;;;;;5034445;28;20049;-79
2021/05/27 05:52:30;;;;;;;11.13;6.72;;;8.80;99.90;;;;;;5035123;28;20108;-78
2021/05/27 05:54:56;;;;;;;11.10;7.03;;;8.90;99.90;;;;;;5034314;28;20026;-78
2021/05/27 05:57:22;;;;;;;11.02;6.72;;;8.90;99.90;;;;;;5016952;28;20596;-79
2021/05/27 05:59:48;;;;;;;7.93;6.40;;;8.90;99.90;;;;;;5016337;28;20026;-78
2021/05/27 06:02:15;;;;;;;9.65;6.85;;;8.90;99.90;;;;;;5016990;28;20033;-78
2021/05/27 06:04:41;;;;;;;8.23;6.30;;;8.90;99.90;;;;;;5033365;28;20062;-78
2021/05/27 06:07:33;;;;;;;8.18;6.18;;;8.80;99.90;;;;;;5004716;28;20072;-79
2021/05/27 06:09:59;;;;;;;9.48;6.18;;;8.80;99.90;;;;;;5033259;28;20033;-79
2021/05/27 06:12:24;;;;;;;8.95;6.22;;;8.80;99.90;;;;;;5007311;28;20033;-79
2021/05/27 06:14:50;;;;;;;9.55;6.18;;;8.80;99.90;;;;;;5015192;28;20041;-79
2021/05/27 06:17:15;;;;;;;9.27;6.63;;;8.70;99.90;;;;;;5033084;28;20030;-79
2021/05/27 06:19:41;;;;;;;8.95;6.47;;;8.70;99.90;;;;;;5034316;28;20548;-79
2021/05/27 06:22:13;;;;;;;12.75;7.15;;;8.70;99.90;;;;;;5017866;28;20048;-79
2021/05/27 06:24:52;;;;;;;8.95;6.45;;;8.70;99.90;;;;;;5028188;28;20128;-79
2021/05/27 06:27:17;;;;;;;9.57;7.38;;;8.80;99.90;;;;;;5016291;28;20089;-79
2021/05/27 06:29:43;;;;;;;9.57;7.07;;;8.70;99.90;;;;;;5033288;28;20057;-79
2021/05/27 06:32:09;;;;;;;9.30;6.70;;;8.70;99.90;;;;;;5016292;28;20029;-79
2021/05/27 06:34:35;;;;;;;10.25;6.75;;;8.80;99.90;;;;;;5031960;28;20040;-79
2021/05/27 06:37:00;;;;;;;9.30;7.03;;;8.80;99.90;;;;;;5032936;28;20021;-80
2021/05/27 06:39:26;;;;;;;12.30;6.60;;;8.90;99.90;;;;;;5016046;28;20087;-80
2021/05/27 06:41:55;;;;;;;8.40;6.38;;;8.90;99.90;;;;;;5015187;28;20034;-79
2021/05/27 06:44:22;;;;;;;6.68;5.60;;;9.00;99.90;;;;;;5032864;28;20044;-79
2021/05/27 06:46:47;;;;;;;8.27;5.68;;;9.00;99.90;;;;;;5026209;28;20034;-78
2021/05/27 06:49:13;;;;;;;8.60;6.22;;;9.10;99.90;;;;;;5013754;28;20045;-79
2021/05/27 06:51:40;;;;;;;10.18;7.07;;;9.10;99.90;;;;;;5026489;28;20030;-79
2021/05/27 06:54:06;;;;;;;8.43;6.28;;;9.40;99.90;;;;;;5015110;28;20116;-79
2021/05/27 06:56:32;;;;;;;6.03;5.32;;;10.20;99.90;;;;;;5027972;28;20522;-79
2021/05/27 06:58:57;;;;;;;7.45;4.65;;;10.80;99.90;;;;;;5030593;28;20079;-79
2021/05/27 07:01:23;;;;;;;6.43;4.35;;;11.30;99.90;;;;;;5029623;28;20036;-78
2021/05/27 07:03:49;;;;;;;6.32;4.32;;;11.70;99.90;;;;;;5033105;28;20029;-78
2021/05/27 07:06:16;;;;;;;6.03;4.10;;;11.80;99.90;;;;;;5028348;28;20026;-79
2021/05/27 07:08:41;;;;;;;4.10;3.70;;;11.90;99.90;;;;;;5012978;28;20087;-79
2021/05/27 07:11:07;;;;;;;6.85;3.58;;;12.10;99.90;;;;;;5013428;28;20041;-79
2021/05/27 07:13:33;;;;;;;4.15;3.70;;;12.30;99.90;;;;;;5031279;28;20046;-79
2021/05/27 07:15:58;;;;;;;5.22;3.63;;;12.30;99.90;;;;;;5031509;28;20029;-78
2021/05/27 07:18:24;;;;;;;4.85;3.75;;;12.20;99.90;;;;;;5032614;28;20025;-78
2021/05/27 07:20:50;;;;;;;4.93;4.43;;;12.00;99.90;;;;;;5033408;28;20037;-78
2021/05/27 07:23:17;;;;;;;4.32;3.63;;;11.90;99.90;;;;;;5033983;28;20120;-77
2021/05/27 07:25:43;;;;;;;6.55;4.10;;;11.60;99.90;;;;;;5027390;28;20041;-79
2021/05/27 07:28:09;;;;;;;4.38;3.88;;;11.30;99.90;;;;;;5011767;28;20049;-79
2021/05/27 07:30:35;;;;;;;5.30;3.85;;;11.00;99.90;;;;;;5026570;28;20018;-79
2021/05/27 07:33:02;;;;;;;6.85;4.00;;;10.90;99.90;;;;;;5008217;28;20048;-78
2021/05/27 07:35:28;;;;;;;5.32;4.15;;;10.70;99.90;;;;;;5025374;28;20025;-78
2021/05/27 07:37:55;;;;;;;5.72;3.65;;;10.70;99.90;;;;;;5029942;28;20037;-81
2021/05/27 07:40:21;;;;;;;5.03;4.28;;;10.70;99.90;;;;;;5023856;28;20029;-79
2021/05/27 07:42:47;;;;;;;3.67;3.38;;;10.70;99.90;;;;;;5030713;28;20099;-77
2021/05/27 07:45:13;;;;;;;4.45;4.03;;;10.80;99.90;;;;;;5027312;28;20491;-78
2021/05/27 07:47:38;;;;;;;4.95;3.35;;;11.00;99.90;;;;;;5031887;28;20065;-78
2021/05/27 07:50:07;;;;;;;4.43;3.47;;;11.20;99.90;;;;;;5007048;28;20025;-78
2021/05/27 07:52:34;;;;;;;3.90;3.45;;;11.30;99.90;;;;;;5013387;28;20117;-78
2021/05/27 07:55:00;;;;;;;4.18;3.00;;;11.50;99.90;;;;;;5032045;28;20091;-78
2021/05/27 07:57:25;;;;;;;3.17;2.85;;;11.50;99.90;;;;;;5030626;28;20030;-78
2021/05/27 07:59:51;;;;;;;6.50;3.45;;;11.70;99.90;;;;;;5030308;28;20025;-77
2021/05/27 08:02:17;;;;;;;4.18;3.78;;;11.80;99.90;;;;;;5032044;28;20513;-78
2021/05/27 08:04:43;;;;;;;4.28;3.00;;;11.80;99.90;;;;;;5029667;28;20497;-77
2021/05/27 08:07:10;;;;;;;4.13;2.95;;;11.80;99.90;;;;;;5028873;28;20037;-79
2021/05/27 08:09:36;;;;;;;5.50;3.15;;;11.80;99.90;;;;;;4994694;28;20087;-78
2021/05/27 08:12:03;;;;;;;4.45;3.25;;;11.80;99.90;;;;;;5029514;28;20065;-77
2021/05/27 08:14:29;;;;;;;3.83;2.72;;;11.70;99.90;;;;;;5023333;28;20029;-78
2021/05/27 08:16:54;;;;;;;5.30;2.75;;;11.70;99.90;;;;;;4994405;28;20029;-79
2021/05/27 08:19:21;;;;;;;6.57;3.38;;;11.60;99.90;;;;;;5013681;28;20029;-78
2021/05/27 08:21:47;;;;;;;2.63;2.42;;;11.50;99.90;;;;;;4999463;28;20029;-78
2021/05/27 08:24:13;;;;;;;4.13;2.78;;;11.50;99.90;;;;;;4996695;28;20041;-77
2021/05/27 08:26:39;;;;;;;2.53;2.30;;;11.50;99.90;;;;;;5012574;28;20037;-78
2021/05/27 08:29:05;;;;;;;3.25;2.38;;;11.60;99.90;;;;;;4980663;28;20034;-77
2021/05/27 08:31:33;;;;;;;3.72;3.10;;;11.60;99.90;;;;;;5015526;28;20498;-78
2021/05/27 08:33:59;;;;;;;5.53;2.85;;;11.70;99.90;;;;;;5032037;28;20033;-78
2021/05/27 08:36:25;;;;;;;4.47;2.85;;;11.70;99.90;;;;;;5013333;28;20033;-78
2021/05/27 08:38:51;;;;;;;3.97;2.58;;;11.70;99.90;;;;;;5031600;28;20021;-80
2021/05/27 08:41:19;;;;;;;3.22;2.25;;;11.70;99.90;;;;;;5032691;28;20766;-78
2021/05/27 08:43:49;;;;;;;2.80;2.60;;;11.70;99.90;;;;;;4998595;28;20116;-78
2021/05/27 08:46:16;;;;;;;5.35;2.67;;;11.80;99.90;;;;;;5025104;28;20040;-77
2021/05/27 08:48:44;;;;;;;2.97;2.40;;;11.80;99.90;;;;;;5029468;28;20037;-79
2021/05/27 08:51:12;;;;;;;3.70;2.60;;;11.90;99.90;;;;;;5029019;28;20038;-80
2021/05/27 08:53:38;;;;;;;2.78;2.08;;;12.00;99.90;;;;;;5013357;28;20052;-79
2021/05/27 08:56:05;;;;;;;2.50;2.30;;;12.00;99.90;;;;;;5031931;28;20056;-79
2021/05/27 08:58:31;;;;;;;3.22;1.92;;;12.00;99.90;;;;;;5031279;28;20029;-78
2021/05/27 09:00:56;;;;;;;2.92;1.98;;;11.90;99.90;;;;;;5029789;28;20035;-78
2021/05/27 09:03:23;;;;;;;4.97;2.33;;;11.80;99.90;;;;;;5026867;28;20493;-78
2021/05/27 09:05:59;;;;;;;2.33;2.13;;;11.70;99.90;;;;;;5012700;28;20032;-78
2021/05/27 09:08:28;;;;;;;3.22;2.35;;;11.60;99.90;;;;;;5011515;28;20036;-78
2021/05/27 09:11:07;;;;;;;3.60;2.30;;;11.50;99.90;;;;;;5037482;28;20026;-79
2021/05/27 09:13:33;;;;;;;2.63;1.98;;;11.50;99.90;;;;;;5029147;28;20021;-78
2021/05/27 09:16:08;;;;;;;5.20;2.13;;;11.40;99.90;;;;;;5027014;28;20026;-79
2021/05/27 09:18:37;;;;;;;2.97;2.35;;;11.30;99.90;;;;;;5025631;28;20029;-78
2021/05/27 09:21:06;;;;;;;3.28;1.95;;;11.20;99.90;;;;;;5025228;28;20033;-78
2021/05/27 09:23:33;;;;;;;3.03;2.80;;;11.10;99.90;;;;;;5027448;28;20059;-79
2021/05/27 09:26:06;;;;;;;3.20;2.88;;;11.10;99.90;;;;;;5027964;28;20747;-78
2021/05/27 09:28:32;;;;;;;5.63;3.17;;;11.00;99.90;;;;;;5030319;28;20017;-78
2021/05/27 09:31:07;;;;;;;2.60;2.25;;;11.00;99.90;;;;;;5010322;28;20073;-78
2021/05/27 09:33:38;;;;;;;4.50;2.60;;;10.90;99.90;;;;;;5029092;28;20517;-78
2021/05/27 09:36:17;;;;;;;2.85;2.53;;;10.80;99.90;;;;;;5029411;28;20029;-79
2021/05/27 09:38:46;;;;;;;3.35;2.67;;;10.70;99.90;;;;;;5028178;28;20045;-79
2021/05/27 09:41:23;;;;;;;5.43;3.38;;;10.70;99.90;;;;;;5030350;28;20103;-79
2021/05/27 09:43:53;;;;;;;4.05;3.20;;;10.60;99.90;;;;;;5030710;28;20021;-79
2021/05/27 09:46:21;;;;;;;3.97;3.58;;;10.70;99.90;;;;;;5030580;28;20038;-79
2021/05/27 09:48:46;;;;;;;4.18;3.80;;;10.70;99.90;;;;;;5029894;28;20061;-78
2021/05/27 09:51:28;;;;;;;7.95;3.45;;;10.70;99.90;;;;;;5025784;28;20065;-79
2021/05/27 09:53:55;;;;;;;4.88;3.40;;;10.60;99.90;;;;;;5029900;28;20041;-80
2021/05/27 09:56:35;;;;;;;4.75;3.08;;;10.60;99.90;;;;;;5057092;28;20033;-81
2021/05/27 09:59:02;;;;;;;2.90;2.70;;;10.60;99.90;;;;;;5029365;28;20026;-79
2021/05/27 10:01:28;;;;;;;3.30;3.00;;;10.50;99.90;;;;;;5027702;28;20040;-80
2021/05/27 10:03:53;;;;;;;4.28;3.58;;;10.50;99.90;;;;;;5026809;28;20033;-78
2021/05/27 10:06:19;;;;;;;4.15;3.75;;;10.50;99.90;;;;;;5008410;28;20733;-79
2021/05/27 10:08:55;;;;;;;5.20;3.63;;;10.40;99.90;;;;;;5028099;28;20060;-79
2021/05/27 10:11:23;;;;;;;4.40;3.67;;;10.40;99.90;;;;;;5009188;28;20036;-79
2021/05/27 10:13:49;;;;;;;5.25;3.97;;;10.40;99.90;;;;;;5024274;28;20021;-79
2021/05/27 10:16:17;;;;;;;6.78;4.25;;;10.30;99.90;;;;;;5025150;28;20034;-78
2021/05/27 10:18:44;;;;;;;4.35;3.35;;;10.20;99.90;;;;;;5026822;28;20055;-79
2021/05/27 10:21:12;;;;;;;5.88;4.10;;;10.20;99.90;;;;;;5025851;28;20112;-80
2021/05/27 10:23:38;;;;;;;3.97;3.55;;;10.10;99.90;;;;;;5025567;28;20034;-80
2021/05/27 10:26:04;;;;;;;6.03;3.92;;;10.10;99.90;;;;;;5026891;28;20038;-78
2021/05/27 10:28:31;;;;;;;4.22;3.83;;;10.10;99.90;;;;;;5028063;28;20235;-81
2021/05/27 10:30:59;;;;;;;4.57;4.07;;;10.10;99.90;;;;;;5022671;28;20502;-79
2021/05/27 10:33:25;;;;;;;6.43;4.55;;;10.30;99.90;;;;;;5025469;28;20026;-79
2021/05/27 10:36:02;;;;;;;5.53;4.28;;;10.50;99.90;;;;;;4990819;28;20021;-79
2021/05/27 10:38:40;;;;;;;4.30;3.80;;;10.70;99.90;;;;;;5010842;28;20096;-79
2021/05/27 10:41:14;;;;;;;5.65;3.78;;;10.80;99.90;;;;;;5028401;28;20037;-78
2021/05/27 10:43:59;;;;;;;4.35;3.95;;;10.80;99.90;;;;;;5023023;28;20042;-79
2021/05/27 10:46:25;;;;;;;4.15;3.50;;;10.90;99.90;;;;;;5028855;28;20029;-79
2021/05/27 10:48:51;;;;;;;5.55;3.70;;;10.80;99.90;;;;;;5013984;28;20387;-80
2021/05/27 10:51:33;;;;;;;5.93;4.47;;;10.80;99.90;;;;;;5028938;28;20025;-80
2021/05/27 10:54:07;;;;;;;7.15;3.63;;;10.80;99.90;;;;;;5026803;28;20055;-78
2021/05/27 10:56:36;;;;;;;4.45;3.40;;;10.90;99.90;;;;;;5026761;28;20037;-78
2021/05/27 10:59:13;;;;;;;7.00;3.78;;;11.00;99.90;;;;;;5028598;28;20044;-79
2021/05/27 11:01:41;;;;;;;4.13;3.58;;;11.20;99.90;;;;;;5026703;28;20088;-79
2021/05/27 11:04:21;;;;;;;3.92;3.53;;;11.40;99.90;;;;;;5029311;28;20481;-79
2021/05/27 11:06:49;;;;;;;3.90;3.20;;;11.50;99.90;;;;;;5026720;28;20040;-78
2021/05/27 11:09:19;;;;;;;3.42;2.75;;;11.70;99.90;;;;;;5007112;28;20037;-79
2021/05/27 11:11:49;;;;;;;5.43;3.65;;;11.80;99.90;;;;;;5028571;28;20150;-79
2021/05/27 11:14:25;;;;;;;3.67;2.90;;;11.90;99.90;;;;;;5028712;28;20643;-79
2021/05/27 11:17:06;;;;;;;3.38;2.92;;;12.00;99.90;;;;;;5025779;28;20026;-79
2021/05/27 11:25:08;;;;;;;4.97;3.50;;;12.80;99.90;;;;;;5027775;28;20048;-78
2021/05/27 11:27:34;;;;;;;4.43;3.08;;;13.00;99.90;;;;;;5028584;28;20028;-79
2021/05/27 11:30:20;;;;;;;3.17;2.88;;;13.10;99.90;;;;;;5011613;28;20060;-79
2021/05/27 11:32:54;;;;;;;3.00;2.30;;;13.10;99.90;;;;;;5027455;28;20029;-79
2021/05/27 11:35:23;;;;;;;4.85;2.40;;;13.20;99.90;;;;;;5029074;28;20025;-79
2021/05/27 11:37:52;;;;;;;2.88;2.20;;;13.40;99.90;;;;;;5028546;28;20512;-79
2021/05/27 11:40:21;;;;;;;3.00;2.22;;;13.60;99.90;;;;;;5025704;28;20025;-79
2021/05/27 11:42:49;;;;;;;2.17;2.00;;;13.70;99.90;;;;;;5028852;28;20432;-79
2021/05/27 11:45:16;;;;;;;3.13;1.85;;;13.80;99.90;;;;;;5026772;28;20033;-79
2021/05/27 11:47:42;;;;;;;2.45;2.25;;;13.80;99.90;;;;;;5027983;28;20065;-79
2021/05/27 11:50:13;;;;;;;3.58;2.03;;;13.60;99.90;;;;;;5027094;28;20057;-79
2021/05/27 11:52:39;;;;;;;1.90;1.80;;;13.50;99.90;;;;;;5029870;28;20033;-79
2021/05/27 11:55:11;;;;;;;3.60;2.30;;;13.30;99.90;;;;;;5031104;28;20508;-79
2021/05/27 11:57:54;;;;;;;4.13;2.00;;;13.30;99.90;;;;;;5031092;28;20022;-79
2021/05/27 12:00:21;;;;;;;2.45;2.25;;;13.30;99.90;;;;;;5030934;28;20123;-80
2021/05/27 12:02:55;;;;;;;2.00;1.73;;;13.40;99.90;;;;;;5031787;28;20120;-79
2021/05/27 12:05:22;;;;;;;3.13;2.08;;;13.50;99.90;;;;;;5031332;28;20127;-79
2021/05/27 12:08:00;;;;;;;1.88;1.77;;;13.70;99.90;;;;;;5033075;28;20029;-79
2021/05/27 12:10:28;;;;;;;2.10;1.90;;;13.80;99.90;;;;;;5028075;28;20040;-80
2021/05/27 12:12:55;;;;;;;2.45;1.80;;;13.90;99.90;;;;;;5025477;28;20033;-79
2021/05/27 12:15:22;;;;;;;4.00;2.20;;;13.90;99.90;;;;;;5027490;28;20017;-81
2021/05/27 12:17:52;;;;;;;1.85;1.75;;;14.00;99.90;;;;;;4996107;28;20470;-81
2021/05/27 12:20:36;;;;;;;4.30;1.98;;;14.20;99.90;;;;;;5011215;28;20038;-79
2021/05/27 12:23:07;;;;;;;12.90;2.53;;;14.50;99.90;;;;;;5030227;28;20068;-79
2021/05/27 12:25:44;;;;;;;3.20;1.60;;;14.90;99.90;;;;;;5018457;28;20401;-79
2021/05/27 12:28:23;;;;;;;1.92;1.83;;;15.30;99.90;;;;;;5027799;28;20026;-79
2021/05/27 12:30:52;;;;;;;1.70;1.58;;;15.60;99.90;;;;;;5032370;28;20036;-79
2021/05/27 12:33:20;;;;;;;1.60;1.50;;;15.80;99.90;;;;;;5032872;28;20061;-80
2021/05/27 12:35:46;;;;;;;1.58;1.48;;;15.90;99.90;;;;;;5015592;28;20025;-78
2021/05/27 12:38:43;;;;;;;5.53;1.55;;;15.90;99.90;;;;;;5015350;28;20041;-79
2021/05/27 12:41:10;;;;;;;2.80;1.67;;;15.90;99.90;;;;;;5030766;28;20068;-80
2021/05/27 12:43:42;;;;;;;1.70;1.60;;;15.70;99.90;;;;;;5032036;28;20510;-80
2021/05/27 12:46:10;;;;;;;1.70;1.58;;;15.40;99.90;;;;;;5015743;28;20037;-79
2021/05/27 12:48:52;;;;;;;1.70;1.40;;;15.10;99.90;;;;;;5029168;28;20032;-78
2021/05/27 12:51:20;;;;;;;3.13;1.90;;;14.90;99.90;;;;;;5025147;28;20089;-79
2021/05/27 12:53:46;;;;;;;1.65;1.55;;;14.70;99.90;;;;;;5030451;28;20083;-79
2021/05/27 12:56:14;;;;;;;1.77;1.67;;;14.50;99.90;;;;;;5031178;28;20453;-78
2021/05/27 12:58:51;;;;;;;3.03;2.58;;;14.50;99.90;;;;;;5031734;28;20021;-79
2021/05/27 13:01:32;;;;;;;2.05;1.75;;;14.40;99.90;;;;;;5027469;28;20108;-79
2021/05/27 13:03:59;;;;;;;1.52;1.40;;;14.20;99.90;;;;;;5029929;28;20437;-79
2021/05/27 13:06:30;;;;;;;1.52;1.30;;;14.20;99.90;;;;;;5012625;28;20021;-79
2021/05/27 13:08:58;;;;;;;3.05;1.33;;;14.10;99.90;;;;;;5026998;28;20115;-80
2021/05/27 13:11:32;;;;;;;1.88;1.65;;;14.00;99.90;;;;;;5028323;28;20139;-79
2021/05/27 13:13:59;;;;;;;2.28;1.58;;;13.90;99.90;;;;;;5027563;28;20040;-80